createdAt,value
2022-08-11T00:01:14.229Z,1.83
2022-08-11T00:06:39.414Z,1.52
2022-08-11T00:12:00.389Z,1.85
2022-08-11T00:17:29.412Z,2.05
2022-08-11T00:22:50.861Z,1.88
2022-08-11T00:28:27.044Z,1.77
2022-08-11T00:33:51.000Z,1.90
2022-08-11T00:39:13.269Z,1.85
2022-08-11T00:44:52.081Z,1.65
2022-08-11T00:50:29.604Z,2.10
2022-08-11T00:56:14.708Z,1.70
2022-08-11T01:01:38.413Z,1.55
2022-08-11T01:06:59.068Z,1.90
2022-08-11T01:12:41.171Z,1.67
2022-08-11T01:18:29.542Z,1.70
2022-08-11T01:23:56.453Z,1.90
2022-08-11T01:30:15.672Z,1.42
2022-08-11T01:35:49.004Z,1.40
2022-08-11T01:42:06.160Z,1.60
2022-08-11T01:47:53.612Z,1.67
2022-08-11T01:53:35.647Z,1.40
2022-08-11T01:59:02.269Z,1.70
2022-08-11T02:04:22.981Z,1.55
2022-08-11T02:10:36.625Z,1.30
2022-08-11T02:16:11.157Z,1.50
2022-08-11T02:22:02.613Z,1.35
2022-08-11T02:27:37.053Z,1.58
2022-08-11T02:33:25.419Z,1.55
2022-08-11T02:39:20.138Z,1.70
2022-08-11T02:44:57.218Z,1.60
2022-08-11T02:50:27.719Z,1.73
2022-08-11T02:56:01.807Z,1.45
2022-08-11T03:01:41.019Z,1.58
2022-08-11T03:07:28.507Z,1.75
2022-08-11T03:13:21.049Z,1.45
2022-08-11T03:18:47.952Z,1.58
2022-08-11T03:24:19.129Z,1.52
2022-08-11T03:29:47.832Z,1.50
2022-08-11T03:35:11.570Z,1.30
2022-08-11T03:42:01.949Z,1.25
2022-08-11T03:47:55.006Z,1.23
2022-08-11T03:53:35.471Z,1.60
2022-08-11T03:59:18.101Z,1.60
2022-08-11T04:05:15.975Z,1.48
2022-08-11T04:11:16.716Z,1.83
2022-08-11T04:17:08.209Z,1.50
2022-08-11T04:22:50.440Z,1.58
2022-08-11T04:28:29.323Z,1.90
2022-08-11T04:34:08.233Z,1.40
2022-08-11T04:39:57.073Z,1.50
2022-08-11T04:46:00.070Z,1.95
2022-08-11T04:52:14.750Z,1.77
2022-08-11T04:58:06.902Z,1.65
2022-08-11T05:03:49.403Z,1.58
2022-08-11T05:09:10.245Z,1.80
2022-08-11T05:14:53.233Z,1.92
2022-08-11T05:20:32.941Z,1.58
2022-08-11T05:26:46.697Z,1.42
2022-08-11T05:32:19.661Z,1.63
2022-08-11T05:38:04.731Z,1.70
2022-08-11T05:44:20.475Z,1.80
2022-08-11T05:49:47.575Z,1.98
2022-08-11T05:55:28.797Z,1.95
2022-08-11T06:00:49.669Z,1.80
2022-08-11T06:06:10.914Z,1.48
2022-08-11T06:11:43.941Z,1.80
2022-08-11T06:17:06.681Z,1.60
2022-08-11T06:22:27.839Z,1.77
2022-08-11T06:27:58.695Z,1.77
2022-08-11T06:33:31.325Z,1.70
2022-08-11T06:39:14.431Z,1.40
2022-08-11T06:45:05.255Z,1.30
2022-08-11T06:50:44.845Z,1.30
2022-08-11T07:02:05.214Z,1.25
2022-08-11T07:08:34.067Z,1.30
2022-08-11T07:14:02.880Z,1.15
2022-08-11T07:19:47.672Z,1.00
2022-08-11T07:25:32.916Z,1.05
2022-08-11T07:30:59.280Z,1.60
2022-08-11T07:36:28.194Z,1.75
2022-08-11T07:41:52.127Z,1.77
2022-08-11T07:47:32.865Z,1.90
2022-08-11T07:52:53.989Z,1.80
2022-08-11T07:58:37.759Z,1.67
2022-08-11T08:04:25.848Z,1.52
2022-08-11T08:10:05.335Z,1.58
2022-08-11T08:15:44.393Z,1.60
2022-08-11T08:21:12.479Z,2.42
2022-08-11T08:26:53.569Z,1.95
2022-08-11T08:32:16.455Z,1.60
2022-08-11T08:37:46.198Z,1.85
2022-08-11T08:43:15.177Z,1.75
2022-08-11T08:48:36.753Z,1.30
2022-08-11T08:54:06.030Z,1.55
2022-08-11T08:59:38.120Z,1.45
2022-08-11T09:05:10.047Z,1.50
2022-08-11T09:10:32.873Z,1.13
2022-08-11T09:15:56.430Z,1.20
2022-08-11T09:21:39.355Z,1.88
2022-08-11T09:27:07.468Z,1.40
2022-08-11T09:32:31.496Z,1.20
2022-08-11T09:38:12.888Z,1.20
2022-08-11T09:43:55.259Z,1.42
2022-08-11T09:49:21.214Z,1.30
2022-08-11T09:54:48.215Z,1.20
2022-08-11T10:00:13.533Z,1.45
2022-08-11T10:05:53.547Z,1.20
2022-08-11T10:11:18.362Z,1.30
2022-08-11T10:16:43.834Z,1.15
2022-08-11T10:22:27.569Z,1.00
2022-08-11T10:28:28.604Z,1.23
2022-08-11T10:33:59.073Z,1.10
2022-08-11T10:39:22.044Z,1.52
2022-08-11T10:44:46.070Z,1.00
2022-08-11T10:50:29.781Z,1.05
2022-08-11T10:56:09.579Z,0.98
2022-08-11T11:01:36.527Z,0.93
2022-08-11T11:07:13.857Z,0.88
2022-08-11T11:12:57.800Z,1.10
2022-08-11T11:18:22.724Z,0.80
2022-08-11T11:23:54.099Z,1.30
2022-08-11T11:29:31.515Z,1.20
2022-08-11T11:35:04.512Z,1.30
2022-08-11T11:40:30.600Z,0.90
2022-08-11T11:45:53.119Z,1.20
2022-08-11T11:51:14.198Z,1.40
2022-08-11T11:56:36.414Z,1.17
2022-08-11T12:01:57.769Z,0.95
2022-08-11T12:07:38.770Z,1.95
2022-08-11T12:13:20.514Z,1.10
2022-08-11T12:18:42.917Z,1.05
2022-08-11T12:24:29.347Z,1.17
2022-08-11T12:29:55.925Z,1.27
2022-08-11T12:35:17.133Z,1.10
2022-08-11T12:41:15.098Z,0.98
2022-08-11T12:46:38.869Z,0.88
2022-08-11T12:52:14.661Z,1.20
2022-08-11T12:58:04.145Z,1.50
2022-08-11T13:03:43.717Z,1.20
2022-08-11T13:09:13.774Z,1.30
2022-08-11T13:14:34.987Z,1.20
2022-08-11T13:19:59.068Z,0.93
2022-08-11T13:25:24.436Z,0.95
2022-08-11T13:31:04.169Z,1.30
2022-08-11T13:36:28.551Z,1.20
2022-08-11T13:41:49.926Z,1.15
2022-08-11T13:47:13.670Z,1.13
2022-08-11T13:52:38.989Z,1.40
2022-08-11T13:58:08.150Z,1.15
2022-08-11T14:04:30.017Z,0.90
2022-08-11T14:09:27.510Z,1.23
2022-08-11T14:15:05.882Z,1.20
2022-08-11T14:20:50.998Z,1.30
2022-08-11T14:26:23.774Z,1.25
2022-08-11T14:31:47.798Z,0.90
2022-08-11T14:37:12.182Z,1.05
2022-08-11T14:42:51.744Z,1.02
2022-08-11T14:53:33.186Z,1.27
2022-08-11T14:58:54.319Z,1.10
2022-08-11T15:04:36.068Z,1.00
2022-08-11T15:10:14.296Z,0.90
2022-08-11T15:15:53.888Z,0.95
2022-08-11T15:21:33.653Z,2.97
2022-08-11T15:27:14.943Z,1.20
2022-08-11T15:32:59.086Z,0.93
2022-08-11T15:38:24.034Z,0.93
2022-08-11T15:44:10.195Z,1.13
2022-08-11T15:50:11.958Z,0.80
2022-08-11T15:55:19.234Z,1.20
2022-08-11T16:01:04.307Z,1.00
2022-08-11T16:06:31.483Z,1.42
2022-08-11T16:11:54.531Z,0.90
2022-08-11T16:17:18.027Z,1.83
2022-08-11T16:22:41.852Z,0.80
2022-08-11T16:28:18.802Z,1.05
2022-08-11T16:33:51.182Z,1.15
2022-08-11T16:39:14.718Z,1.10
2022-08-11T16:44:55.490Z,1.10
2022-08-11T16:50:17.605Z,1.00
2022-08-11T16:55:52.274Z,1.10
2022-08-11T17:01:14.964Z,0.90
2022-08-11T17:07:00.084Z,1.20
2022-08-11T17:12:44.000Z,1.10
2022-08-11T17:18:07.332Z,1.00
2022-08-11T17:23:48.394Z,0.90
2022-08-11T17:29:10.376Z,1.10
2022-08-11T17:34:49.557Z,1.10
2022-08-11T17:40:13.646Z,1.13
2022-08-11T17:45:52.964Z,1.02
2022-08-11T17:51:38.642Z,0.90
2022-08-11T17:57:20.545Z,0.85
2022-08-11T18:03:06.319Z,0.80
2022-08-11T18:08:48.501Z,1.10
2022-08-11T18:14:30.659Z,0.90
2022-08-11T18:20:09.985Z,0.98
2022-08-11T18:25:57.301Z,1.08
2022-08-11T18:31:39.507Z,1.08
2022-08-11T18:37:19.707Z,1.15
2022-08-11T18:43:05.954Z,0.88
2022-08-11T18:48:47.617Z,0.90
2022-08-11T18:54:30.083Z,1.20
2022-08-11T19:00:12.265Z,0.90
2022-08-11T19:06:35.220Z,1.10
2022-08-11T19:11:56.715Z,1.20
2022-08-11T19:17:43.394Z,1.13
2022-08-11T19:23:27.613Z,1.13
2022-08-11T19:29:08.327Z,0.93
2022-08-11T19:34:50.068Z,0.90
2022-08-11T19:40:31.092Z,0.95
2022-08-11T19:46:14.186Z,0.80
2022-08-11T19:51:55.933Z,0.95
2022-08-11T19:57:39.911Z,0.93
2022-08-11T20:03:22.376Z,1.30
2022-08-11T20:09:04.360Z,1.00
2022-08-11T20:14:49.584Z,1.00
2022-08-11T20:20:31.279Z,0.70
2022-08-11T20:26:30.150Z,1.42
2022-08-11T20:32:11.186Z,0.90
2022-08-11T20:37:53.013Z,0.73
2022-08-11T20:44:08.010Z,0.73
2022-08-11T20:49:48.727Z,0.82
2022-08-11T20:55:45.642Z,0.90
2022-08-11T21:01:38.627Z,0.90
2022-08-11T21:07:28.544Z,1.10
2022-08-11T21:13:24.101Z,0.63
2022-08-11T21:19:08.605Z,0.63
2022-08-11T21:24:50.755Z,1.33
2022-08-11T21:30:30.418Z,1.10
2022-08-11T21:41:50.613Z,1.02
2022-08-11T21:47:42.774Z,0.95
2022-08-11T21:53:25.409Z,1.02
2022-08-11T21:59:07.460Z,1.00
2022-08-11T22:04:49.009Z,1.23
2022-08-11T22:10:42.365Z,1.10
2022-08-11T22:16:22.898Z,0.93
2022-08-11T22:27:43.480Z,1.10
2022-08-11T22:33:28.468Z,1.30
2022-08-11T22:39:09.399Z,1.30
2022-08-11T22:44:48.968Z,1.20
2022-08-11T22:50:28.920Z,0.98
2022-08-11T22:56:08.510Z,1.50
2022-08-11T23:07:50.284Z,1.60
2022-08-11T23:13:32.249Z,1.40
2022-08-11T23:19:11.816Z,1.60
2022-08-11T23:24:51.523Z,1.88
2022-08-11T23:30:31.905Z,2.60
2022-08-11T23:36:11.214Z,2.30
2022-08-11T23:42:10.646Z,1.80
2022-08-11T23:47:51.178Z,1.17
2022-08-11T23:53:32.708Z,1.20
2022-08-11T23:59:11.821Z,1.20
